Cobija Capitan Anibal Arab Airport

About
Name: Cobija Capitan Anibal Arab Airport
Identifier:  CIJ/SLCO
Serves:  Cobija , Bolivia
Operator:  Government
Public/Private:  Public
Local Time:  16. Sep 02:06 UTC-04
Description: Captain Aníbal Arab Airport is an international airport serving the Acre River port city of Cobija, the capital of the Pando Department of Bolivia.
Source: Wikipedia
Location
Runways
Identifier Length (m/ft) Surface
02/20 2,000/6,562 Asphalt
Statistics
Flights per Day:
3 flights
Distance: 676km (420mi)
Flights delayed:
86% (0 flights per day delayed)
Delay Average: 10 minutes
Current Weather
 34 C (Humidity: 49%)
  4kt (7km/h / 4mph) from 320°
  3km (1 mi.)
 METAR SLCO 152200Z 32004KT 3000 FU NSC 34/22 Q1007

Current Delays

Departures
N/A
Arrivals
N/A

Destinations

Top Destinations
Airport Flights
per week
Seats
per week
  La Paz (LPB) 11 1,221 1 174
  Cochabamba (CBB) 1 158 0 22
  Santa Cruz (VVI) 0 63 0 9
  Trinidad (TDD) 0 31 0 4

Airlines & Planes

Top Airlines
Airline Flights
per Day
Seats
per Day
  Boliviana de Aviación (BoA) 0 126
  EcoJet 0 83
Top Plane Types
Model Flights Seats
Boeing B737-700 0.9/day 126/day 126.93333333333334
British-Aerospace Avro RJ-85 0.9/day 83/day 83.86666666666666